Home en_GB de_DE fr_FR  

20.01.18 15:01 UTC   Mobile
Pricing
FAQ

 
TopMeteo
Username Password  



Actual observations and routing is only available for users with a valid subscription.

Therefore we show you arbitrarily locations. For more information about METAR-observerations see Wikipedia.


EDAH Heringsdorf TAF/S

14:20Z
201401Z 2014/2021 CNL
TEMPO 2012/2017 15004KT 3500 BR OVC007
19003KT 4400 BR OVC016 01/00 Q1004
EDDG Münster Osnabrück Flughafen TAF/L


14:20Z
201100Z 2012/2112 21007KT 9999 BKN020
TEMPO 2012/2018 BKN014 ; BECMG 2013/2016 VRB03KT ; TEMPO 2018/2021 RA
BECMG 2018/2021 26005KT SCT008 BKN012 ; TEMPO 2021/2102 2500 RASN BKN007 ; BECMG 2103/2106 BKN020
13004KT 060V160 9999 SCT020 BKN030 04/01 Q1001 BECMG BKN012
KBUF Greater Buffalo International TAF/L




13:54Z
201120Z 2012/2112 23022G31KT P6SM BKN250
FM202100 24015G21KT P6SM SCT250
FM202300 24015KT P6SM SCT250
FM210300 24009KT P6SM BKN250
FM210700 23008KT P6SM BKN025
23021G30KT 10SM FEW100 FEW130 SCT170 BKN220 03/M03 A2985 RMK AO2 PK WND 25034/1338 SLP115 T00281033
KPIT Greater Pittsburgh International TAF/L




13:51Z
201140Z 2012/2118 22012G22KT P6SM BKN250 WS020/24045KT
FM201500 22010G20KT P6SM SCT035
FM202200 24008KT P6SM BKN025
FM210000 23006KT P6SM OVC015
FM211400 20006KT P6SM VCSH BKN020
21014G20KT 10SM SCT250 03/M05 A3002 RMK AO2 SLP181 T00281050
KAXH Houston Southwest 14:35Z AUTO 00000KT 1/4SM FG OVC002 12/12 A3011 RMK AO2 T01170117
LIMC Milano/Malpensa TAF/L
14:20Z
201100Z 2012/2118 35005KT 9999 SCT080
17003KT CAVOK 08/00 Q1009 NOSIG
LOWK Klagenfurt-Flughafen TAF/L


14:20Z
201115Z 2012/2112 VRB02KT 9999 BKN020 TX01/2112Z TNM01/2108Z
TEMPO 2020/2104 34005KT 4000 -SHSN BR SCT008 BKN012 PROB30
TEMPO 2102/2107 1200 FZBCFG SCT003 BKN008 ; TEMPO 2108/2112 36010G25KT
08003KT 030V140 9999 BKN016 BKN300 00/M03 Q1010 R10L/19//95 NOSIG
FYWB Walvis Bay 14:00Z AUTO 28009KT //// // ////// 22/15 Q1010
FBFT Francistown TAF/S
14:00Z
201200Z 2015/2024 12010KT CAVOK
12011KT 080V180 CAVOK 35/02 Q1012

Data source: ftp://tgftp.nws.noaa.gov/SL.us008001
"Data is provided as a public service by NOAA's National Weather Service (NWS) and is considered public information and may be distributed or copied."
 
 
General Terms
Imprint
About Us
model run: 06 UTC - forecast: Th 25.01.18 23:00